Monday, December 17, 2018, 10:45 AM GMT
Back to Local

CYVO, Val D'Or, Que.

Location: , , Canada Lat: 48.067
Local Time: 10:45 AM GMT (10:45 GMT) Lon: -77.783
Time Zone: GMT Elev: 1105 ft

Show me the last for .
Show Decoded

2018-12-17 10:24 METAR CYVO 171024Z AUTO 30005KT 4SM -SN BKN011 BKN019 OVC034 M02/M02 A2961 RMK
                 SLP047 =
2018-12-17 10:12 METAR CYVO 171012Z AUTO 29005KT 250V330 9SM -SN SCT007 BKN013 OVC034 M02/M02
                 A2961 RMK SLP047 =
2018-12-17 10:11 METAR CYVO 171011Z AUTO 29005KT 250V330 9SM -SN BKN009 BKN013 OVC034 M02/M02
                 A2961 RMK SLP047 =
2018-12-17 10:08 METAR CYVO 171008Z AUTO 28005KT 250V320 9SM -SN OVC011 M02/M02 A2961 RMK SLP047
                 =
2018-12-17 10:00 METAR CYVO 171000Z AUTO 28006KT 9SM -SN OVC011 M02/M02 A2961 RMK SLP047 =
2018-12-17 09:03 METAR CYVO 170903Z AUTO 25005KT 210V280 9SM -SN OVC008 M02/M02 A2961 RMK SLP048
                 =
2018-12-17 09:00 METAR CYVO 170900Z AUTO 24005KT 210V280 9SM OVC008 M02/M02 A2961 RMK SLP048 =
2018-12-17 08:00 METAR CYVO 170800Z AUTO 21007KT 9SM OVC012 M02/M03 A2962 RMK SLP051 =
2018-12-17 07:00 METAR CYVO 170700Z AUTO 20006KT 9SM OVC010 M03/M03 A2962 RMK SLP053 =
2018-12-17 06:46 METAR CYVO 170646Z AUTO 20007KT 9SM OVC010 M03/M03 A2962 RMK SLP053 =
2018-12-17 06:00 METAR CYVO 170600Z AUTO 20008KT 9SM BKN010 M03/M04 A2963 RMK SLP054 =
2018-12-17 05:53 METAR CYVO 170553Z AUTO 20007KT 9SM BKN010 M03/M04 A2963 RMK SLP056 =
2018-12-17 05:05 METAR CYVO 170505Z AUTO 19009KT 9SM SCT019 BKN049 M03/M04 A2964 RMK SLP059 =
2018-12-17 05:00 METAR CYVO 170500Z AUTO 19009KT 9SM BKN019 M03/M04 A2964 RMK SLP059 =
2018-12-17 04:26 METAR CYVO 170426Z AUTO 19009KT 9SM BKN024 OVC029 M04/M04 A2966 RMK PRESFR
                 SLP068 =
2018-12-17 04:00 METAR CYVO 170400Z AUTO 19008KT 9SM FEW030 M04/M04 A2968 RMK SLP075 =
2018-12-17 03:00 METAR CYVO 170300Z 19010G17KT 15SM SKC M03/M03 A2969 RMK LAST STFD OBS/NEXT
                 171100UTC SLP077 =
2018-12-17 02:00 METAR CYVO 170200Z 18012KT 15SM FEW280 M03/M03 A2971 RMK CI1 SLP087 =
2018-12-17 01:00 METAR CYVO 170100Z 18011G18KT 15SM FEW009 FEW190 FEW280 M02/M03 A2974 RMK
                 SF1AC1CI2 SF TR AC TR SLP098 =
2018-12-17 00:00 METAR CYVO 170000Z 17013KT 15SM FEW190 SCT280 M02/M02 A2978 RMK AC1CI3 SLP111 =
2018-12-16 23:00 METAR CYVO 162300Z 17011KT 15SM FEW190 SCT280 M02/M02 A2980 RMK AC2CI2 SLP117 =
2018-12-16 22:00 METAR CYVO 162200Z 18012KT 15SM SCT190 BKN260 M01/M02 A2982 RMK AC4CI2 SLP124 =
2018-12-16 21:00 METAR CYVO 162100Z 16015G20KT 15SM BKN190 BKN270 M00/M01 A2981 RMK AC6CI1 SLP120
                 =
2018-12-16 20:00 METAR CYVO 162000Z 16016KT 15SM BKN260 BKN290 00/M02 A2984 RMK CC6CI1 SLP129 =
2018-12-16 19:00 METAR CYVO 161900Z 15015KT 15SM BKN220 BKN270 00/M01 A2988 RMK CC5CI2 SLP144 =
2018-12-16 18:00 METAR CYVO 161800Z 15011KT 15SM FEW012 FEW230 BKN270 M00/M01 A2993 RMK SC1CC2CI5
                 SC TR CONTRAILS SLP160 =
2018-12-16 17:00 METAR CYVO 161700Z CCA 16012KT 15SM FEW230 BKN270 M01/M01 A2998 RMK CC2CI5
                 SLP176 =
2018-12-16 16:00 METAR CYVO 161600Z 18009KT 15SM BKN220 BKN270 M03/M03 A3002 RMK CI5CI2 SLP191 =
2018-12-16 15:00 METAR CYVO 161500Z 19009KT 15SM BKN220 BKN270 M04/M04 A3006 RMK CI5CI2 CONTRAILS
                 SLP204 =
2018-12-16 14:00 METAR CYVO 161400Z 18006KT 15SM FEW230 BKN260 M08/M08 A3008 RMK CC2CI3 SLP212 =
2018-12-16 13:00 METAR CYVO 161300Z 16005KT 15SM FEW250 M09/M09 A3008 RMK CI2 SLP213 =
2018-12-16 12:00 METAR CYVO 161200Z 17005KT 15SM FEW120 FEW250 M09/M09 A3010 RMK AC1CI1 AC TR CI
                 TR SLP220 =
2018-12-16 11:00 METAR CYVO 161100Z 17006KT 15SM SKC M09/M09 A3012 RMK FROIN SLP225 =

Support USWX by starting your Amazon purchase here.